createdAt,value
2023-01-12T00:04:05.936Z,74.5
2023-01-12T00:14:05.917Z,75.5
2023-01-12T00:24:06.014Z,75.5
2023-01-12T00:34:05.889Z,76
2023-01-12T00:44:06.014Z,76.5
2023-01-12T00:54:05.908Z,76.5
2023-01-12T01:04:06.028Z,76.5
2023-01-12T01:14:05.894Z,77.5
2023-01-12T01:24:06.040Z,77.5
2023-01-12T01:34:06.060Z,77.5
2023-01-12T01:44:06.001Z,77.5
2023-01-12T01:54:06.060Z,78
2023-01-12T02:04:05.996Z,78
2023-01-12T02:14:06.063Z,77.5
2023-01-12T02:24:06.038Z,78
2023-01-12T02:34:06.051Z,79
2023-01-12T02:44:06.192Z,79.5
2023-01-12T02:54:06.089Z,79.5
2023-01-12T03:04:06.193Z,79.5
2023-01-12T03:14:06.047Z,80
2023-01-12T03:24:06.166Z,80.5
2023-01-12T03:34:06.060Z,80.5
2023-01-12T03:44:06.160Z,80.5
2023-01-12T03:54:06.041Z,80.5
2023-01-12T04:04:06.165Z,80.5
2023-01-12T04:14:06.238Z,80.5
2023-01-12T04:24:06.145Z,80.5
2023-01-12T04:34:06.237Z,80.5
2023-01-12T04:44:06.237Z,80.5
2023-01-12T04:54:06.231Z,80.5
2023-01-12T05:04:07.788Z,80.5
2023-01-12T05:14:06.263Z,80.5
2023-01-12T05:24:06.197Z,77
2023-01-12T05:34:06.247Z,67
2023-01-12T05:44:06.344Z,69.5
2023-01-12T05:54:06.213Z,72
2023-01-12T06:04:06.350Z,74
2023-01-12T06:14:06.238Z,75
2023-01-12T06:24:06.353Z,76.5
2023-01-12T06:34:06.217Z,65
2023-01-12T06:44:06.327Z,65.5
2023-01-12T06:54:06.217Z,68.5
2023-01-12T07:04:06.387Z,70.5
2023-01-12T07:14:08.409Z,72.5
2023-01-12T07:24:06.345Z,74
2023-01-12T07:34:06.414Z,69.5
2023-01-12T07:44:06.357Z,62.5
2023-01-12T07:54:06.425Z,66
2023-01-12T08:04:06.336Z,68.5
2023-01-12T08:14:06.423Z,71
2023-01-12T08:24:06.345Z,73
2023-01-12T08:34:06.411Z,74
2023-01-12T08:44:06.378Z,75
2023-01-12T08:54:06.405Z,63.5
2023-01-12T09:04:06.533Z,64.5
2023-01-12T09:14:06.401Z,67.5
2023-01-12T09:24:06.557Z,70
2023-01-12T09:34:06.428Z,72
2023-01-12T09:44:06.539Z,73.5
2023-01-12T09:54:06.402Z,75
2023-01-12T10:04:06.540Z,76
2023-01-12T10:14:06.599Z,76.5
2023-01-12T10:24:06.542Z,77.5
2023-01-12T10:34:06.438Z,78
2023-01-12T10:44:06.715Z,78
2023-01-12T10:54:06.474Z,78.5
2023-01-12T11:04:06.594Z,78.5
2023-01-12T11:14:06.460Z,78.5
2023-01-12T11:24:06.626Z,79
2023-01-12T11:34:06.662Z,79
2023-01-12T11:44:06.604Z,78
2023-01-12T11:54:06.691Z,77
2023-01-12T12:04:06.589Z,77
2023-01-12T12:14:06.662Z,76
2023-01-12T12:24:06.625Z,76
2023-01-12T12:34:07.070Z,76
2023-01-12T12:44:07.187Z,76.5
2023-01-12T12:54:06.663Z,76.5
2023-01-12T13:04:06.799Z,76.5
2023-01-12T13:14:06.679Z,76.5
2023-01-12T13:24:06.798Z,75
2023-01-12T13:34:06.676Z,67
2023-01-12T13:44:06.960Z,69.5
2023-01-12T13:54:06.702Z,69.5
2023-01-12T14:04:06.819Z,71.5
2023-01-12T14:14:06.711Z,66.5
2023-01-12T14:24:06.835Z,64.5
2023-01-12T14:34:06.726Z,66.5
2023-01-12T14:44:06.818Z,66
2023-01-12T14:54:06.892Z,68.5
2023-01-12T15:04:06.974Z,70.5
2023-01-12T15:14:07.119Z,71
2023-01-12T15:24:06.789Z,71
2023-01-12T15:34:06.853Z,71.5
2023-01-12T15:44:06.800Z,71.5
2023-01-12T15:54:06.886Z,71.5
2023-01-12T16:04:40.144Z,71
2023-01-12T16:14:06.847Z,70.5
2023-01-12T16:24:06.974Z,70.5
2023-01-12T16:34:06.840Z,70
2023-01-12T16:44:06.996Z,70
2023-01-12T16:54:06.840Z,67
2023-01-12T17:04:06.957Z,58.5
2023-01-12T17:14:07.067Z,60.5
2023-01-12T17:24:06.968Z,62
2023-01-12T17:34:06.868Z,63
2023-01-12T17:44:07.009Z,64
2023-01-12T17:54:07.032Z,65
2023-01-12T18:04:06.967Z,64
2023-01-12T18:14:07.068Z,54
2023-01-12T18:24:06.995Z,55.5
2023-01-12T18:34:07.128Z,56.5
2023-01-12T18:44:06.982Z,58.5
2023-01-12T18:54:07.058Z,60
2023-01-12T19:04:06.996Z,61.5
2023-01-12T19:14:07.073Z,55
2023-01-12T19:24:07.134Z,52
2023-01-12T19:34:07.035Z,55
2023-01-12T19:44:07.173Z,57
2023-01-12T19:54:07.077Z,59
2023-01-12T20:04:07.190Z,60.5
2023-01-12T20:14:07.067Z,61
2023-01-12T20:24:07.157Z,62
2023-01-12T20:34:07.061Z,62.5
2023-01-12T20:44:07.133Z,63
2023-01-12T20:54:07.228Z,63.5
2023-01-12T21:04:07.131Z,64
2023-01-12T21:14:07.229Z,64.5
2023-01-12T21:24:07.166Z,64.5
2023-01-12T21:34:07.213Z,64.5
2023-01-12T21:44:07.125Z,64
2023-01-12T21:54:07.211Z,53.5
2023-01-12T22:04:07.176Z,55
2023-01-12T22:14:07.203Z,56.5
2023-01-12T22:24:07.319Z,59
2023-01-12T22:34:07.242Z,60
2023-01-12T22:44:07.347Z,61.5
2023-01-12T22:54:07.190Z,63
2023-01-12T23:04:07.313Z,64.5
2023-01-12T23:14:07.212Z,65.5
2023-01-12T23:24:07.302Z,66
2023-01-12T23:34:07.405Z,67
2023-01-12T23:44:07.318Z,67.5
2023-01-12T23:54:07.232Z,68
